Time;durP1;ratioP1;P1;durP2;ratioP2;P2;SDS_P1;SDS_P2;PMS_P1;PMS_P2;Temp;Humidity;BMP_temperature;BMP_pressure;BME280_temperature;BME280_humidity;BME280_pressure;Samples;Min_cycle;Max_cycle;Signal;HPM_P1;HPM_P2
2022/10/20 08:20:53;;;;;;;18.30;15.57;;;;;;;10.05;100.00;99150.91;5167383;27;20536;-79
2022/10/20 08:23:21;;;;;;;17.13;13.67;;;;;;;10.50;100.00;99130.78;5132727;27;38581;-81
2022/10/20 08:25:49;;;;;;;17.63;14.13;;;;;;;11.14;100.00;99154.31;5132704;27;42856;-83
2022/10/20 08:28:16;;;;;;;14.20;12.63;;;;;;;11.59;100.00;99153.31;5149426;27;44530;-81
2022/10/20 08:30:44;;;;;;;15.53;12.93;;;;;;;12.00;100.00;99161.34;5132441;27;41015;-81
2022/10/20 08:33:12;;;;;;;18.90;12.57;;;;;;;12.19;100.00;99145.97;5132643;27;38635;-82
2022/10/20 08:35:40;;;;;;;14.57;11.93;;;;;;;12.58;95.44;99166.44;5132245;27;44656;-81
2022/10/20 08:38:09;;;;;;;13.23;11.90;;;;;;;12.83;91.51;99148.88;5149491;27;42622;-80
2022/10/20 08:40:40;;;;;;;13.27;10.93;;;;;;;13.42;86.61;99160.78;5149193;27;42039;-80
2022/10/20 08:43:16;;;;;;;13.10;11.43;;;;;;;13.89;83.13;99157.44;5149906;27;39138;-78
2022/10/20 08:45:44;;;;;;;12.37;11.03;;;;;;;14.27;79.02;99175.13;5132140;27;43423;-81
2022/10/20 08:48:17;;;;;;;11.63;10.53;;;;;;;14.65;76.62;99178.53;5132274;27;42143;-81
2022/10/20 08:50:49;;;;;;;11.50;10.40;;;;;;;15.02;73.64;99181.13;5132297;27;43566;-81
2022/10/20 08:53:21;;;;;;;13.83;9.67;;;;;;;15.40;70.70;99167.53;5146474;27;39871;-81
2022/10/20 08:55:49;;;;;;;10.33;9.30;;;;;;;15.86;69.62;99175.47;5149555;27;40513;-82
2022/10/20 08:58:19;;;;;;;10.80;9.70;;;;;;;16.11;66.83;99177.91;5149116;27;41906;-81
2022/10/20 09:00:55;;;;;;;10.47;9.47;;;;;;;16.44;64.42;99208.25;5149019;27;42260;-84
2022/10/20 09:03:26;;;;;;;10.47;8.67;;;;;;;16.47;64.15;99200.81;5149187;27;38975;-80
2022/10/20 09:05:56;;;;;;;10.33;8.80;;;;;;;16.61;64.33;99186.31;5132221;27;41436;-80
2022/10/20 09:08:29;;;;;;;10.17;8.90;;;;;;;16.71;63.16;99184.63;5150445;27;42302;-80
2022/10/20 09:10:58;;;;;;;10.00;9.13;;;;;;;16.87;62.17;99190.41;5132249;27;41301;-83
2022/10/20 09:13:27;;;;;;;9.83;8.53;;;;;;;16.92;61.17;99182.00;5166873;27;40521;-82
2022/10/20 09:16:02;;;;;;;9.23;8.43;;;;;;;17.15;61.19;99186.28;5131576;27;40623;-82
2022/10/20 09:18:30;;;;;;;10.23;9.00;;;;;;;17.50;60.14;99177.91;5146461;27;43721;-82
2022/10/20 09:21:01;;;;;;;10.00;9.00;;;;;;;17.59;57.93;99185.16;5131713;27;42368;-81
2022/10/20 09:23:37;;;;;;;8.93;8.03;;;;;;;17.49;58.58;99164.66;5148809;27;42884;-81
2022/10/20 09:26:11;;;;;;;9.53;8.53;;;;;;;17.18;58.79;99161.91;5147323;27;41660;-80
2022/10/20 09:28:39;;;;;;;8.77;7.87;;;;;;;17.04;59.34;99180.13;5131725;27;42038;-82
2022/10/20 09:31:21;;;;;;;9.23;8.33;;;;;;;16.79;59.76;99160.78;5123574;27;41735;-81
2022/10/20 09:33:50;;;;;;;10.57;8.57;;;;;;;17.06;59.88;99167.47;5133689;27;39818;-82
2022/10/20 09:36:20;;;;;;;9.83;8.93;;;;;;;17.47;59.16;99191.56;5117676;27;42073;-82
2022/10/20 09:38:52;;;;;;;8.93;8.03;;;;;;;17.91;58.21;99187.78;5152079;27;43207;-81
2022/10/20 09:41:21;;;;;;;8.33;7.53;;;;;;;18.30;58.07;99167.28;5132819;27;42867;-82
2022/10/20 09:43:53;;;;;;;9.33;8.33;;;;;;;18.62;56.22;99174.31;5134633;27;38894;-81
2022/10/20 09:46:24;;;;;;;17.03;9.17;;;;;;;18.50;55.23;99178.94;5135104;27;40312;-80
2022/10/20 09:48:53;;;;;;;9.07;8.10;;;;;;;18.37;55.79;99180.16;5117942;27;41748;-81
2022/10/20 09:51:24;;;;;;;8.47;7.67;;;;;;;18.10;56.25;99143.25;5117863;27;41109;-84
2022/10/20 09:54:00;;;;;;;10.60;8.27;;;;;;;18.39;56.06;99164.78;5117468;27;39146;-83
2022/10/20 09:56:31;;;;;;;8.90;8.10;;;;;;;18.30;55.95;99134.25;5149037;27;41846;-82
2022/10/20 09:59:01;;;;;;;8.97;8.00;;;;;;;18.55;55.13;99173.13;5134473;27;41712;-82
2022/10/20 10:01:28;;;;;;;9.73;8.10;;;;;;;18.76;54.13;99168.56;5134226;27;41298;-82
2022/10/20 10:04:00;;;;;;;8.90;7.93;;;;;;;18.95;53.53;99184.66;5134730;27;40874;-82
2022/10/20 10:06:41;;;;;;;11.03;8.50;;;;;;;19.12;54.09;99150.03;5134791;27;41983;-83
2022/10/20 10:09:33;;;;;;;9.17;8.27;;;;;;;19.57;51.89;99172.63;5117198;27;43825;-81
2022/10/20 10:12:03;;;;;;;9.43;8.30;;;;;;;19.92;51.41;99200.66;5148776;27;42969;-80
2022/10/20 10:14:33;;;;;;;8.90;7.23;;;;;;;20.17;51.21;99204.53;5117586;27;39064;-82
2022/10/20 10:17:01;;;;;;;8.30;7.33;;;;;;;20.40;50.84;99193.25;5116711;27;40680;-81
2022/10/20 10:19:31;;;;;;;8.70;7.83;;;;;;;20.41;49.92;99208.41;5116133;27;41814;-83
2022/10/20 10:22:00;;;;;;;9.53;8.17;;;;;;;20.46;50.59;99204.44;5134117;27;42845;-84
2022/10/20 10:24:38;;;;;;;9.90;8.60;;;;;;;20.85;50.77;99196.97;5134573;27;38753;-83
2022/10/20 10:27:19;;;;;;;8.80;7.90;;;;;;;21.04;48.92;99194.97;5134901;27;40814;-80
2022/10/20 10:29:47;;;;;;;8.40;7.60;;;;;;;20.92;49.19;99180.03;5117206;27;41629;-82
2022/10/20 10:32:16;;;;;;;8.70;7.40;;;;;;;21.31;49.03;99193.22;5135079;27;42134;-81
2022/10/20 10:35:13;;;;;;;8.37;7.33;;;;;;;21.45;49.03;99192.66;5134263;27;39142;-83
2022/10/20 10:37:44;;;;;;;8.83;7.97;;;;;;;21.25;47.70;99192.00;5117019;27;40573;-82
2022/10/20 10:40:17;;;;;;;9.30;7.00;;;;;;;20.82;48.58;99178.41;5131116;27;42558;-81
2022/10/20 10:43:02;;;;;;;8.67;7.77;;;;;;;20.40;50.04;99162.81;5133143;27;40882;-83
2022/10/20 10:45:42;;;;;;;7.60;6.90;;;;;;;20.01;50.58;99154.94;5133302;27;40546;-82
2022/10/20 10:48:39;;;;;;;7.57;6.87;;;;;;;19.68;51.54;99140.19;5116825;27;40985;-81
2022/10/20 10:51:11;;;;;;;7.37;6.67;;;;;;;19.48;52.14;99106.28;5133610;27;43519;-84
2022/10/20 10:53:50;;;;;;;9.57;8.37;;;;;;;19.77;52.06;99159.13;5134117;27;42722;-82
2022/10/20 10:56:30;;;;;;;8.57;7.60;;;;;;;19.54;51.68;99143.34;5134070;27;41428;-81
2022/10/20 10:59:05;;;;;;;8.53;7.70;;;;;;;19.55;52.28;99154.94;5131031;27;42413;-84
2022/10/20 11:01:57;;;;;;;8.13;7.43;;;;;;;19.43;52.86;99124.69;5133247;27;43175;-82
2022/10/20 11:05:08;;;;;;;8.27;6.90;;;;;;;19.37;53.37;99136.88;5130975;27;42794;-84
2022/10/20 11:07:43;;;;;;;10.93;8.20;;;;;;;19.32;52.98;99149.03;5133668;27;38884;-82
2022/10/20 11:10:20;;;;;;;8.87;7.90;;;;;;;19.31;53.44;99132.06;5148328;27;41644;-84
2022/10/20 11:13:16;;;;;;;8.23;7.30;;;;;;;19.48;53.72;99137.69;5116542;27;42077;-83
2022/10/20 11:15:53;;;;;;;8.17;7.37;;;;;;;19.78;53.15;99137.47;5132857;27;42026;-81
2022/10/20 11:18:49;;;;;;;8.53;7.67;;;;;;;20.24;52.19;99117.75;5133671;27;41180;-84
2022/10/20 11:21:28;;;;;;;7.30;6.60;;;;;;;21.32;51.29;99141.03;5116378;27;40340;-82
2022/10/20 11:24:09;;;;;;;7.73;7.03;;;;;;;21.66;48.69;99152.72;5133912;27;42876;-83
2022/10/20 11:26:41;;;;;;;7.57;6.80;;;;;;;22.01;47.69;99164.38;5133196;27;41168;-85
2022/10/20 11:29:16;;;;;;;7.43;6.57;;;;;;;22.49;47.18;99178.13;5116329;27;41156;-84
2022/10/20 11:31:53;;;;;;;7.20;6.57;;;;;;;22.68;46.07;99170.72;5132704;27;42393;-84
2022/10/20 11:34:28;;;;;;;7.67;6.43;;;;;;;22.76;46.49;99155.41;5133430;27;41896;-84
2022/10/20 11:37:03;;;;;;;8.03;7.23;;;;;;;22.63;45.66;99140.66;5132982;27;41073;-84
2022/10/20 11:39:38;;;;;;;8.43;6.73;;;;;;;22.54;46.15;99148.75;5115981;27;38921;-81
2022/10/20 11:42:19;;;;;;;7.63;6.83;;;;;;;22.16;46.69;99139.34;5132836;27;40526;-81
2022/10/20 11:44:49;;;;;;;6.93;6.33;;;;;;;21.83;46.92;99154.50;5116026;27;43273;-84
2022/10/20 11:47:23;;;;;;;7.13;6.43;;;;;;;21.34;48.08;99120.16;5133895;27;42110;-84
2022/10/20 11:49:52;;;;;;;6.40;5.90;;;;;;;20.86;48.65;99078.34;5130477;27;40703;-83
2022/10/20 11:52:57;;;;;;;5.93;5.37;;;;;;;20.97;50.18;99123.88;5115574;27;41222;-83
2022/10/20 11:55:39;;;;;;;6.53;6.00;;;;;;;20.71;50.41;99113.03;5112512;27;42760;-82
2022/10/20 11:58:38;;;;;;;6.90;6.30;;;;;;;20.44;50.69;99111.25;5131348;27;43392;-84
2022/10/20 12:01:30;;;;;;;6.57;5.83;;;;;;;20.25;51.44;99089.84;5131470;27;40019;-83
2022/10/20 12:04:51;;;;;;;7.87;5.57;;;;;;;20.13;52.71;99077.59;5130594;27;41566;-82
2022/10/20 12:07:40;;;;;;;7.40;6.27;;;;;;;20.06;52.56;99068.44;5079782;27;41917;-83
2022/10/20 12:10:32;;;;;;;6.50;5.87;;;;;;;19.89;53.21;99039.69;5132992;27;41313;-83
2022/10/20 12:13:11;;;;;;;8.87;6.10;;;;;;;19.96;53.75;99056.91;5130262;27;42479;-83
2022/10/20 12:15:46;;;;;;;7.50;6.80;;;;;;;19.88;53.14;99043.38;5132688;27;40659;-84
2022/10/20 12:18:25;;;;;;;7.30;5.93;;;;;;;19.95;53.54;99033.69;5142995;27;43115;-81
2022/10/20 12:20:58;;;;;;;6.63;6.03;;;;;;;20.00;52.75;99026.03;5130644;27;42335;-81
2022/10/20 12:24:12;;;;;;;8.93;6.37;;;;;;;20.25;53.07;99035.22;5147122;27;40426;-83
2022/10/20 12:27:24;;;;;;;8.50;6.17;;;;;;;20.54;52.58;99049.28;5130238;27;42120;-81
2022/10/20 12:30:01;;;;;;;7.87;7.07;;;;;;;20.84;51.44;99031.06;5149134;27;41869;-80
2022/10/20 12:32:53;;;;;;;7.03;6.10;;;;;;;21.32;50.38;99033.25;5146193;27;43668;-81
2022/10/20 12:35:58;;;;;;;7.70;6.17;;;;;;;21.93;49.14;99018.69;5127195;27;38955;-82
2022/10/20 12:38:28;;;;;;;7.40;6.47;;;;;;;22.18;47.52;99029.44;5141826;27;41909;-81
2022/10/20 12:40:59;;;;;;;6.60;5.97;;;;;;;22.14;47.32;99008.31;5141948;27;43811;-82
2022/10/20 12:43:34;;;;;;;6.90;6.20;;;;;;;22.10;47.94;99015.09;5130887;27;43026;-84
2022/10/20 12:46:16;;;;;;;7.13;5.70;;;;;;;22.07;48.93;99015.41;5132624;27;38866;-85
2022/10/20 12:48:46;;;;;;;7.80;6.30;;;;;;;21.77;48.27;99020.31;5132610;27;42581;-85
2022/10/20 12:51:36;;;;;;;6.60;5.93;;;;;;;21.50;49.40;99028.66;5132089;27;41456;-82
2022/10/20 12:54:09;;;;;;;6.87;6.13;;;;;;;21.24;49.57;99030.53;5130727;27;43075;-84
2022/10/20 12:56:41;;;;;;;7.17;4.70;;;;;;;21.04;50.82;99017.22;5132023;27;40233;-81
2022/10/20 12:59:45;;;;;;;5.97;5.40;;;;;;;20.99;51.05;99003.41;5146367;27;41973;-83
2022/10/20 13:02:31;;;;;;;6.70;6.00;;;;;;;20.75;51.12;98987.94;5135081;27;43218;-84
2022/10/20 13:05:01;;;;;;;6.77;6.17;;;;;;;20.64;51.50;99011.56;5132207;27;43022;-84
2022/10/20 13:08:14;;;;;;;6.20;5.60;;;;;;;20.67;52.29;99040.84;5136623;27;39727;-83
2022/10/20 13:10:44;;;;;;;9.40;8.20;;;;;;;20.46;51.67;99010.72;5109557;27;41635;-82
2022/10/20 13:13:48;;;;;;;7.27;6.50;;;;;;;20.32;52.34;99020.97;5135636;27;42901;-81
2022/10/20 13:16:21;;;;;;;7.30;6.43;;;;;;;20.13;52.67;99010.38;5136181;27;42494;-83
2022/10/20 13:18:50;;;;;;;6.90;5.77;;;;;;;20.00;53.38;99004.53;5135209;27;39119;-83
2022/10/20 13:21:31;;;;;;;7.23;6.40;;;;;;;19.89;53.56;98997.53;5135253;27;40653;-82
2022/10/20 13:24:04;;;;;;;7.30;6.60;;;;;;;19.79;54.22;98987.81;5118337;27;41701;-82
2022/10/20 13:26:39;;;;;;;5.37;4.87;;;;;;;19.54;54.73;98955.28;5118366;27;42207;-82
2022/10/20 13:29:14;;;;;;;7.60;6.77;;;;;;;19.61;54.40;98991.31;5132632;27;40715;-84
2022/10/20 13:31:48;;;;;;;5.67;5.10;;;;;;;19.42;54.87;98977.94;5134847;27;40964;-84
2022/10/20 13:34:25;;;;;;;6.87;6.10;;;;;;;19.38;54.98;98982.78;5132353;27;43009;-82
2022/10/20 13:37:10;;;;;;;7.10;6.00;;;;;;;19.31;55.33;98991.56;5117653;27;43447;-81
2022/10/20 13:39:48;;;;;;;8.90;5.70;;;;;;;19.22;55.60;98993.31;5135553;27;39346;-80
2022/10/20 13:42:38;;;;;;;7.40;6.40;;;;;;;19.28;56.29;99018.72;5134994;27;41071;-84
2022/10/20 13:45:19;;;;;;;5.70;4.90;;;;;;;19.26;56.55;99004.59;5132556;27;43109;-81
2022/10/20 13:47:50;;;;;;;5.93;5.27;;;;;;;19.37;56.74;99017.84;5134836;27;41175;-80
2022/10/20 13:50:21;;;;;;;6.80;4.43;;;;;;;19.43;56.74;99006.50;5134992;27;40142;-81
2022/10/20 13:52:54;;;;;;;6.37;5.67;;;;;;;19.18;56.64;98946.25;5131835;27;41564;-81
2022/10/20 13:55:25;;;;;;;5.73;5.13;;;;;;;19.54;57.15;98998.28;5132036;27;43291;-81
2022/10/20 13:57:57;;;;;;;7.37;6.67;;;;;;;19.53;56.58;99009.19;5136179;27;41744;-81
2022/10/20 14:00:28;;;;;;;6.07;5.47;;;;;;;19.48;56.56;99012.28;5135075;27;39771;-81
2022/10/20 14:02:59;;;;;;;6.23;5.47;;;;;;;19.13;56.47;98967.34;5117459;27;42164;-81
2022/10/20 14:05:30;;;;;;;5.50;5.00;;;;;;;19.42;56.90;99004.78;5117251;27;42661;-81
2022/10/20 14:08:01;;;;;;;7.37;6.57;;;;;;;19.40;57.10;99001.44;5131679;27;43098;-84
2022/10/20 14:10:35;;;;;;;5.87;5.37;;;;;;;19.35;57.27;98991.13;5134901;27;40463;-83
2022/10/20 14:13:09;;;;;;;5.93;5.43;;;;;;;19.35;57.65;98992.97;5117260;27;43013;-83
2022/10/20 14:15:38;;;;;;;5.50;5.00;;;;;;;19.23;57.71;98975.34;5131863;27;42783;-83
2022/10/20 14:18:08;;;;;;;8.77;5.33;;;;;;;19.25;58.02;98984.97;5134312;27;43012;-81
2022/10/20 14:20:37;;;;;;;4.97;4.47;;;;;;;19.15;58.33;98970.72;5134471;27;40115;-82
2022/10/20 14:23:06;;;;;;;7.00;4.73;;;;;;;19.05;58.94;98963.69;5134556;27;42073;-83
2022/10/20 14:25:34;;;;;;;5.67;5.17;;;;;;;19.02;59.07;98981.78;5117250;27;42803;-80
2022/10/20 14:28:03;;;;;;;8.20;6.33;;;;;;;18.90;58.84;98982.97;5134288;27;41297;-81
2022/10/20 14:30:32;;;;;;;7.13;6.53;;;;;;;18.82;58.97;98988.19;5134357;27;38673;-83
2022/10/20 14:33:01;;;;;;;6.70;6.00;;;;;;;18.68;58.70;98983.28;5134508;27;40551;-81
2022/10/20 14:35:32;;;;;;;8.07;5.63;;;;;;;18.61;59.40;98979.47;5117049;27;42430;-83
2022/10/20 14:38:04;;;;;;;6.60;5.83;;;;;;;18.61;59.86;98990.22;5135615;27;41715;-83
2022/10/20 14:40:35;;;;;;;6.07;5.57;;;;;;;18.55;59.83;98988.06;5131632;27;40224;-81
2022/10/20 14:43:05;;;;;;;5.60;5.10;;;;;;;18.39;60.26;98967.19;5135657;27;41227;-83
2022/10/20 14:45:34;;;;;;;6.00;4.93;;;;;;;18.34;60.64;98944.47;5134257;27;41570;-82
2022/10/20 14:48:02;;;;;;;7.90;5.37;;;;;;;18.17;61.92;98904.00;5117365;27;42600;-82
2022/10/20 14:50:39;;;;;;;6.43;5.63;;;;;;;17.91;63.27;98900.22;5117381;27;39001;-81
2022/10/20 14:53:28;;;;;;;8.37;7.57;;;;;;;17.60;65.54;98899.44;5116615;27;40970;-81
2022/10/20 14:55:58;;;;;;;7.27;6.50;;;;;;;17.42;65.93;98896.59;5132053;27;43736;-81
2022/10/20 14:58:35;;;;;;;7.33;6.37;;;;;;;17.27;66.78;98892.63;5116782;27;42340;-79
2022/10/20 15:01:23;;;;;;;8.60;7.70;;;;;;;17.11;68.34;98876.22;5116851;27;40047;-83
2022/10/20 15:04:17;;;;;;;7.10;6.40;;;;;;;17.12;68.90;98888.63;5116781;27;41846;-81
2022/10/20 15:06:46;;;;;;;8.97;7.37;;;;;;;16.78;68.96;98843.47;5133375;27;44181;-81
2022/10/20 15:09:22;;;;;;;8.13;7.33;;;;;;;16.99;69.83;98899.56;5133911;27;41224;-83
2022/10/20 15:11:50;;;;;;;8.30;6.87;;;;;;;16.97;69.84;98903.34;5134014;27;39792;-82
2022/10/20 15:14:18;;;;;;;8.17;6.80;;;;;;;16.85;69.72;98892.75;5133871;27;40932;-82
2022/10/20 15:16:49;;;;;;;8.13;7.07;;;;;;;16.94;69.99;98906.31;5134571;27;42691;-81
2022/10/20 15:19:35;;;;;;;8.13;7.40;;;;;;;16.92;70.70;98903.78;5116128;27;42348;-83
2022/10/20 15:22:12;;;;;;;9.93;7.87;;;;;;;16.78;70.82;98869.38;5133820;27;38692;-80
2022/10/20 15:24:40;;;;;;;9.73;6.90;;;;;;;16.82;70.91;98890.34;5133756;27;41615;-82
2022/10/20 15:27:15;;;;;;;9.90;7.33;;;;;;;16.68;71.58;98880.03;5133278;27;42014;-81
2022/10/20 15:29:49;;;;;;;8.17;7.17;;;;;;;16.70;71.37;98894.06;5115745;27;42894;-82
2022/10/20 15:32:18;;;;;;;7.97;7.17;;;;;;;16.63;71.03;98887.59;5133292;27;39945;-84
2022/10/20 15:34:46;;;;;;;7.23;6.43;;;;;;;16.69;71.30;98887.03;5116032;27;41743;-82
2022/10/20 15:37:13;;;;;;;7.13;6.20;;;;;;;16.55;71.36;98876.69;5133176;27;43360;-82
2022/10/20 15:39:41;;;;;;;9.37;6.50;;;;;;;16.52;71.62;98868.91;5115871;27;41128;-82
2022/10/20 15:42:10;;;;;;;7.97;7.03;;;;;;;16.59;71.25;98869.22;5115720;27;40195;-84
2022/10/20 15:44:38;;;;;;;7.70;6.33;;;;;;;16.51;71.51;98867.22;5116176;27;41700;-84
2022/10/20 15:47:06;;;;;;;8.53;7.73;;;;;;;16.55;71.90;98874.00;5115965;27;44185;-81
2022/10/20 15:49:35;;;;;;;7.77;6.83;;;;;;;16.52;71.82;98864.44;5150579;27;43173;-83
2022/10/20 15:52:04;;;;;;;6.50;5.90;;;;;;;16.38;71.79;98838.03;5132708;27;40473;-83
2022/10/20 15:54:31;;;;;;;8.47;6.90;;;;;;;16.49;72.44;98848.63;5115728;27;40996;-83
2022/10/20 15:57:00;;;;;;;8.00;7.20;;;;;;;16.32;72.72;98825.19;5132271;27;44117;-82
2022/10/20 15:59:27;;;;;;;7.53;6.67;;;;;;;16.41;72.67;98844.94;5133250;27;40920;-84
2022/10/20 16:01:55;;;;;;;9.20;6.87;;;;;;;16.40;72.74;98848.59;5115431;27;39031;-83
2022/10/20 16:04:25;;;;;;;9.27;7.00;;;;;;;16.21;72.71;98832.44;5108882;27;41250;-89
2022/10/20 16:06:58;;;;;;;8.27;7.17;;;;;;;16.23;73.35;98852.72;5115421;27;41165;-86
2022/10/20 16:09:36;;;;;;;10.93;7.67;;;;;;;16.23;73.71;98857.22;5115155;27;42150;-89
2022/10/20 16:12:07;;;;;;;9.83;9.03;;;;;;;16.03;73.50;98830.38;5115818;27;38906;-87
2022/10/20 16:14:36;;;;;;;9.27;8.37;;;;;;;16.22;73.33;98855.50;5103689;28;40687;-88
2022/10/20 16:17:04;;;;;;;8.70;7.90;;;;;;;16.04;73.18;98840.09;5090754;28;43510;-89
2022/10/20 16:19:32;;;;;;;18.60;7.30;;;;;;;15.87;73.02;98816.63;5092820;28;41525;-89
2022/10/20 16:22:02;;;;;;;9.13;7.33;;;;;;;16.16;73.04;98863.09;5112040;27;39000;-88
2022/10/20 16:24:30;;;;;;;7.63;6.83;;;;;;;16.01;73.22;98837.69;5113955;27;40566;-89
2022/10/20 16:26:58;;;;;;;9.30;8.33;;;;;;;15.79;73.84;98811.94;5113889;27;41796;-86
2022/10/20 16:29:26;;;;;;;8.63;7.83;;;;;;;15.86;74.16;98835.44;5115248;27;41328;-86
2022/10/20 16:31:54;;;;;;;7.53;6.83;;;;;;;15.74;74.15;98822.16;5114402;27;38587;-87
2022/10/20 16:34:22;;;;;;;7.60;6.63;;;;;;;15.90;73.86;98855.59;5115399;27;41926;-86
2022/10/20 16:36:50;;;;;;;7.13;6.43;;;;;;;15.92;73.68;98865.19;5104585;27;41539;-84
2022/10/20 16:39:19;;;;;;;8.03;6.70;;;;;;;15.76;73.81;98828.22;5112864;27;41224;-81
2022/10/20 16:41:47;;;;;;;7.57;6.33;;;;;;;15.95;74.13;98870.22;5115045;27;39197;-82
2022/10/20 16:44:15;;;;;;;7.90;6.63;;;;;;;15.93;74.10;98866.03;5134967;27;42740;-85
2022/10/20 16:46:43;;;;;;;7.27;6.57;;;;;;;15.93;74.16;98868.69;5112313;27;41486;-80
2022/10/20 16:49:11;;;;;;;7.87;6.00;;;;;;;15.90;74.17;98867.13;5117368;27;42175;-82
2022/10/20 16:51:39;;;;;;;6.67;6.07;;;;;;;15.80;73.87;98839.50;5116624;27;39229;-85
2022/10/20 16:54:06;;;;;;;6.57;5.97;;;;;;;15.75;74.31;98839.88;5134111;27;41761;-83
2022/10/20 16:56:36;;;;;;;8.80;7.23;;;;;;;15.75;74.82;98839.03;5133774;27;41961;-83
2022/10/20 16:59:03;;;;;;;7.27;6.57;;;;;;;15.84;75.04;98850.75;5133760;27;43141;-84
2022/10/20 17:01:31;;;;;;;8.40;7.57;;;;;;;15.75;75.31;98847.88;5115945;27;38382;-81
2022/10/20 17:03:59;;;;;;;7.47;6.67;;;;;;;15.79;75.01;98860.00;5135452;27;41898;-80
2022/10/20 17:06:27;;;;;;;7.80;6.93;;;;;;;15.80;75.06;98860.88;5116344;27;44038;-80
2022/10/20 17:08:55;;;;;;;6.20;5.70;;;;;;;15.75;74.79;98858.56;5116160;27;41897;-84
2022/10/20 17:11:25;;;;;;;8.77;7.00;;;;;;;15.65;75.08;98856.78;5117221;27;40031;-84
2022/10/20 17:14:00;;;;;;;7.73;6.93;;;;;;;15.70;75.20;98878.63;5117181;27;41537;-86
2022/10/20 17:16:30;;;;;;;7.17;6.37;;;;;;;15.65;74.74;98851.44;5116000;27;41921;-85
2022/10/20 17:18:59;;;;;;;8.33;7.47;;;;;;;15.63;75.35;98856.06;5133672;27;41358;-84
2022/10/20 17:21:28;;;;;;;9.20;8.30;;;;;;;15.48;75.76;98826.13;5116471;27;38957;-86
2022/10/20 17:23:57;;;;;;;8.37;7.50;;;;;;;15.72;75.66;98865.97;5116115;27;41897;-84
2022/10/20 17:26:29;;;;;;;8.77;7.80;;;;;;;15.72;75.41;98863.31;5134047;27;43031;-85
2022/10/20 17:28:58;;;;;;;7.97;7.13;;;;;;;15.62;75.09;98857.03;5116888;27;41276;-84
2022/10/20 17:31:29;;;;;;;7.67;7.00;;;;;;;15.62;75.17;98852.56;5115863;27;39078;-84
2022/10/20 17:33:57;;;;;;;6.43;5.73;;;;;;;15.49;74.92;98825.16;5116787;27;41996;-84
2022/10/20 17:36:26;;;;;;;7.47;6.77;;;;;;;15.70;75.18;98875.97;5116562;27;43634;-86
2022/10/20 17:38:56;;;;;;;7.40;6.70;;;;;;;15.54;75.28;98854.13;5115823;27;42327;-84
2022/10/20 17:41:24;;;;;;;6.40;5.87;;;;;;;15.64;74.94;98871.13;5116433;27;38904;-86
2022/10/20 17:43:53;;;;;;;6.90;6.20;;;;;;;15.57;74.93;98868.13;5116626;27;40393;-87
2022/10/20 17:46:21;;;;;;;8.47;6.70;;;;;;;15.53;74.72;98863.13;5115488;27;42113;-84
2022/10/20 17:48:51;;;;;;;8.20;6.70;;;;;;;15.47;74.71;98848.44;5116222;27;43728;-84
2022/10/20 17:51:21;;;;;;;9.27;8.37;;;;;;;15.55;74.74;98872.72;5115611;27;38767;-84
2022/10/20 17:53:51;;;;;;;9.33;7.97;;;;;;;15.45;74.89;98863.75;5132902;27;42065;-84
2022/10/20 17:56:22;;;;;;;10.80;8.90;;;;;;;15.36;74.98;98849.34;5116161;27;43661;-86
2022/10/20 17:59:10;;;;;;;8.83;8.03;;;;;;;15.45;74.78;98855.75;5116495;27;41460;-84
2022/10/20 18:01:41;;;;;;;9.33;8.43;;;;;;;15.51;74.60;98859.72;5116300;27;40317;-85
2022/10/20 18:04:13;;;;;;;9.07;8.17;;;;;;;15.45;75.35;98850.41;5115646;27;41701;-85
2022/10/20 18:06:41;;;;;;;9.70;8.73;;;;;;;15.23;75.76;98819.28;5115485;27;42273;-84
2022/10/20 18:09:11;;;;;;;10.13;8.90;;;;;;;15.39;76.43;98851.75;5115713;27;41780;-84
2022/10/20 18:11:40;;;;;;;10.00;9.00;;;;;;;15.37;76.91;98840.34;5133178;27;41621;-86
2022/10/20 18:14:08;;;;;;;11.37;10.10;;;;;;;15.30;77.40;98841.84;5133300;27;40695;-83
2022/10/20 18:16:38;;;;;;;11.33;8.67;;;;;;;15.35;77.57;98847.63;5113001;28;42912;-84
2022/10/20 18:19:07;;;;;;;9.23;8.33;;;;;;;15.17;77.82;98813.63;5113641;28;42115;-86
2022/10/20 18:21:36;;;;;;;10.93;9.80;;;;;;;15.08;78.26;98791.22;5094447;28;39636;-83
2022/10/20 18:24:06;;;;;;;13.10;11.63;;;;;;;15.31;78.23;98822.19;5096326;28;42687;-87
2022/10/20 18:26:37;;;;;;;11.67;9.63;;;;;;;15.18;77.99;98797.50;5096517;28;44907;-84
2022/10/20 18:29:08;;;;;;;10.67;9.60;;;;;;;15.14;78.17;98781.88;5096119;28;42384;-85
2022/10/20 18:31:38;;;;;;;11.40;10.27;;;;;;;15.10;78.91;98786.59;5096186;28;39391;-84
2022/10/20 18:34:07;;;;;;;10.63;9.47;;;;;;;15.16;78.41;98807.44;5096238;28;40727;-86
2022/10/20 18:36:38;;;;;;;10.53;9.00;;;;;;;15.33;77.77;98844.25;5096536;28;41930;-84
2022/10/20 18:39:07;;;;;;;12.00;8.07;;;;;;;15.30;77.87;98836.50;5095389;28;41179;-85
2022/10/20 18:41:37;;;;;;;9.77;8.70;;;;;;;15.35;77.35;98844.97;5091046;28;40183;-82
2022/10/20 18:44:08;;;;;;;8.17;7.33;;;;;;;15.31;77.23;98843.53;5095675;28;40404;-80
2022/10/20 18:46:36;;;;;;;8.17;7.37;;;;;;;15.32;77.07;98847.91;5132461;27;42881;-81
2022/10/20 18:49:06;;;;;;;9.20;8.30;;;;;;;15.32;77.10;98845.25;5132679;27;42390;-82
2022/10/20 18:51:35;;;;;;;8.73;7.90;;;;;;;15.36;77.29;98851.16;5094362;27;38725;-80
2022/10/20 18:54:06;;;;;;;9.03;8.10;;;;;;;15.37;77.07;98855.53;5113496;28;42016;-79
2022/10/20 18:56:35;;;;;;;7.63;6.93;;;;;;;15.38;77.13;98860.72;5125802;27;43146;-80
2022/10/20 18:59:07;;;;;;;9.03;8.13;;;;;;;15.28;76.89;98854.47;5115336;27;41055;-80
2022/10/20 19:01:37;;;;;;;7.67;6.60;;;;;;;15.37;76.93;98877.72;5110976;28;38700;-80
2022/10/20 19:04:05;;;;;;;9.13;8.00;;;;;;;15.34;77.22;98869.97;5111231;27;41088;-80
2022/10/20 19:06:35;;;;;;;9.10;7.40;;;;;;;15.37;76.96;98896.41;5105383;27;41682;-81
2022/10/20 19:09:06;;;;;;;9.53;8.57;;;;;;;15.27;77.05;98876.78;5133062;27;41426;-81
2022/10/20 19:11:36;;;;;;;8.80;7.80;;;;;;;15.35;77.44;98906.34;5132651;27;41490;-81
2022/10/20 19:14:05;;;;;;;9.87;8.97;;;;;;;15.33;77.60;98902.13;5115843;27;42117;-81
2022/10/20 19:16:34;;;;;;;11.10;9.30;;;;;;;15.26;78.24;98883.09;5132156;27;41968;-80
2022/10/20 19:19:05;;;;;;;10.00;8.73;;;;;;;15.13;78.04;98871.72;5115462;27;43512;-81
2022/10/20 19:21:33;;;;;;;9.63;8.63;;;;;;;15.09;78.48;98875.59;5115881;27;39052;-81
2022/10/20 19:24:03;;;;;;;9.57;8.17;;;;;;;15.12;78.51;98891.34;5132620;27;41821;-80
2022/10/20 19:26:34;;;;;;;12.87;10.47;;;;;;;15.12;78.80;98896.69;5132132;27;43210;-79
2022/10/20 19:29:04;;;;;;;10.23;9.20;;;;;;;14.95;79.53;98866.06;5131983;27;43234;-81
2022/10/20 19:31:35;;;;;;;11.63;10.23;;;;;;;15.06;80.05;98890.03;5133398;27;40179;-80
2022/10/20 19:34:06;;;;;;;9.83;8.93;;;;;;;15.06;80.03;98870.53;5133201;27;41771;-80
2022/10/20 19:36:34;;;;;;;12.47;11.17;;;;;;;15.05;80.93;98871.50;5132759;27;42569;-81
2022/10/20 19:39:02;;;;;;;13.80;10.47;;;;;;;15.03;80.72;98865.44;5115626;27;41132;-80
2022/10/20 19:41:30;;;;;;;11.40;10.30;;;;;;;14.71;81.11;98828.03;5132268;27;40381;-81
2022/10/20 19:43:59;;;;;;;11.83;9.83;;;;;;;15.00;81.16;98866.50;5115238;27;42350;-82
2022/10/20 19:46:28;;;;;;;11.90;10.70;;;;;;;14.88;81.57;98837.31;5132353;27;41775;-81
2022/10/20 19:48:56;;;;;;;13.03;10.50;;;;;;;14.91;82.42;98837.06;5115287;27;41151;-81
2022/10/20 19:51:23;;;;;;;12.00;10.77;;;;;;;14.94;82.33;98836.84;5133465;27;40936;-80
2022/10/20 19:53:52;;;;;;;13.83;12.17;;;;;;;14.84;83.92;98817.19;5133679;27;42375;-80
2022/10/20 19:56:19;;;;;;;15.37;12.70;;;;;;;14.80;85.74;98815.78;5111194;28;43237;-81
2022/10/20 19:58:48;;;;;;;16.20;13.40;;;;;;;14.81;85.34;98825.47;5094337;28;41483;-79
2022/10/20 20:01:17;;;;;;;14.83;12.33;;;;;;;14.78;85.65;98839.03;5122987;27;38783;-79
2022/10/20 20:03:45;;;;;;;13.83;11.77;;;;;;;14.74;85.35;98849.94;5133195;27;41847;-79
2022/10/20 20:06:15;;;;;;;12.27;10.93;;;;;;;14.72;85.02;98854.53;5132894;27;43139;-82
2022/10/20 20:08:44;;;;;;;12.93;11.60;;;;;;;14.66;85.05;98852.38;5114851;27;41768;-79
2022/10/20 20:11:21;;;;;;;14.43;13.03;;;;;;;14.66;85.93;98868.38;5114597;27;40499;-79
2022/10/20 20:13:49;;;;;;;14.20;11.30;;;;;;;14.66;85.37;98862.19;5131036;27;42935;-78
2022/10/20 20:16:19;;;;;;;12.17;10.77;;;;;;;14.64;85.10;98854.31;5109406;28;42617;-80
2022/10/20 20:18:48;;;;;;;12.77;10.30;;;;;;;14.66;85.48;98851.53;5111856;28;42315;-80